Lincoln, Iowa
Current Conditions -  °F | °C
As of 6:13 PM on Friday 24 Oct 2014 (Local Time) from KMIW Reporting Station
Haze Haze  
Wind Chill: 62°   Ceiling: 1200
Heat Index: 62°   Visibility: 2.5mi
Dew Point: 60°   Wind: 3mph
Humidity: 93%   Direction: 180°S
Pressure: 29.91"   Gusts: NA
Location:  42.26°N, 92.69°W
Report Text: KMIW 242313Z AUTO 18003KT 2 1/2SM BR OVC012 17/16 A2991 RMK AO2 T01670156
Loading
Personal Weather Stations






























Interactive Weather Map
Tropical Storm Tracking
New forecast layout! Learn more

10-Day Weather Forecast

Advertisements
Track Severe Weather on mobile